Sugarloaf, Pennsylvania
Current Conditions -  °F | °C
As of 1:55 AM on Thursday 27 Nov 2014 (Local Time) from KHZL Reporting Station
Overcast Overcast  
Wind Chill: 23°   Ceiling: 800
Heat Index: 30°   Visibility: 10mi
Dew Point: 28°   Wind: 8mph
Humidity: 93%   Direction: 300°WNW
Pressure: 29.92"   Gusts: NA
Location:  40.99°N, 76.07°W
Report Text: KHZL 270655Z AUTO 30007KT 10SM BKN008 OVC011 M01/M02 A2992 RMK AO2
Loading
Personal Weather Stations






























Interactive Weather Map New forecast layout! Learn more

10-Day Weather Forecast

Advertisements
Track Severe Weather on mobile